MMTJ 090641Z 00000KT 7SM OVC018 15/13 A3004 RMK 8/6// HZY= 090641

MMTJ 090549Z 33003KT 7SM OVC018 15/13 A3004 RMK SLP176 54000 909 8/6// HZY= 090550

MMTJ 090443Z 00000KT 7SM OVC018 15/13 A3004 RMK 8/5// HZY= 090443

MMTJ 090342Z 00000KT 7SM OVC018 15/14 A3004 RMK 8/5// HZY= 090343

MMTJ 090242Z 35005KT 7SM OVC018 15/14 A3005 RMK SLP178 53010 916 8/5// HZY BINOVC= 090243

MMTJ 090141Z 30007KT 7SM BKN025 15/14 A3004 RMK 8/500 HZY LWR LYR SC= 090141

MMTJ 090043Z 29007KT 8SM SCT025 16/13 A3002 RMK 8/500 HZY= 090043

MMTJ 082344Z 27008KT 10SM FEW035 18/12 A3001 RMK SLP166 54000 908 8/500 HZY= 082344

MMTJ 082240Z 26008KT 10SM SKC 18/11 A3001 RMK HZY DSNT ST 3RD QUAD= 082241

MMTJ 082146Z 27010KT 8SM SKC 19/10 A3000 RMK HZY ST W CU S= 082146

MMTJ 082047Z 28010KT 8SM SKC 19/10 A3001 RMK SLP166 57023 959 HZY ST W= 082050

MMTJ 081946Z 22005KT 8SM SKC 19/10 A3003 RMK HZY ST W= 081947

MMTJ 081844Z 13004KT 7SM FEW030 18/11 A3008 RMK 8/500 HZY= 081844

MMTJ 081747Z 13003KT 7SM FEW030 16/10 A3009 RMK SLP190 52013 914 8/500 HZY= 081748

MMTJ 081653Z 15005KT 6SM SCT030 15/09 A3008 RMK 8/500 HZY ISOL AC= 081655

MMTJ 081544Z 36005KT 6SM SCT030 BKN080 12/09 A3008 RMK 8/530 HZY= 081546

MMTJ 081445Z 15005KT 6SM SCT060 BKN200 12/11 A3007 RMK SLP178 52001 917 8/509 BR= 081448

MMTJ 081342Z 10004KT 5SM SCT200 12/11 A3003 RMK 8/009 HZY ST W= 081343

MMTJ 081241Z 06004KT 5SM BKN200 12/11 A3003 RMK 8/009 HZY ST W= 081243

MMTJ 081143Z 00000KT 5SM SCT200 11/11 A3003 RMK SLP176 52004 912 8/008 HZY ST W= 081145

MMTJ 081043Z 08005KT 5SM SCT200 11/10 A3004 RMK 8/008 HZY ST W= 081045

MMTJ 080941Z 00000KT 6SM FEW200 10/10 A3004 RMK 8/008 HZY ST W= 080942

MMTJ 080843Z 36004KT 6SM FEW200 11/10 A3003 RMK SLP172 52004 905 8/009 HZY ST W= 080845

MMTJ 080740Z 00000KT 6SM BKN200 11/10 A3003 RMK 8/009 HZY ST W= 080742

MMTJ 080640Z 00000KT 6SM SCT200 12/10 A3003 RMK 8/008 HZY ST W= 080642

MMTJ 080546Z 11003KT 6SM BKN200 13/11 A3003 RMK SLP167 57007 957 8/009 HZY= 080547

MMTJ 080447Z 00000KT 6SM BKN200 13/10 A3001 RMK 8/009 HZY ST W= 080448

MMTJ 080347Z 13004KT 6SM SCT210 14/11 A3001 RMK 8/008 HZY ST W= 080348

MMTJ 080246Z 00000KT 6SM FEW030 BKN210 14/11 A3000 RMK SLP160 52002 963 8/508 HZY= 080248

MMTJ 080149Z 14003KT 5SM OVC020 15/11 A3002 RMK 8/4// HZ BINOVC= 080150

MMTJ 080048Z 13003KT 6SM OVC020 15/11 A3001 RMK 8/4// HZ= 080049

MMTJ 072357Z RTD 17003KT 6SM OVC020 15/11 A3001 RMK SLP159 57017 978 8/4// HZY= 072358

MMTJ 072249Z 20004KT 6SM OVC020 15/10 A3000 RMK 8/4// HZY= 072250

MMTJ 072146Z 00000KT 5SM OVC015 15/11 A2999 RMK 8/7//= 072147

MMTJ 072042Z 10004KT 5SM OVC020 15/11 A2999 RMK SLP175 54000 972 60035 8/7// RAE35= 072043

MMTJ 071945Z 00000KT 4SM -RA OVC020 15/11 A3000 RMK 60045 8/7//= 071946

MMTJ 071850Z 08004KT 6SM -RA OVC020 15/10 A3000 RMK 8/7// RAB45= 071851

MMTJ 071745Z 00000KT 8SM OVC020 15/10 A3002 RMK SLP175 52016 987 8/5// HZY= 071745

MMTJ 071641Z 00000KT 8SM OVC020 14/10 A3000 RMK 8/5// HZY= 071641

MMTJ 071546Z 09008KT 8SM OVC020 14/10 A3001 RMK 8/5// HZY= 071547

MMTJ 071448Z 08006KT 8SM OVC029 14/10 A3001 RMK SLP161 57004 977 8/5// HZY= 071449

MMTJ 071342Z 08003KT 7SM OVC020 14/11 A3000 RMK 8/5// HZY= 071343

MMTJ 071243Z 09005KT 7SM OVC017 14/11 A2999 RMK 8/6// HZY= 071244

MMTJ 071151Z 07005KT 6SM OVC012 13/11 A3001 RMK SLP164 57003 971 8/6// HZY= 071155

MMTJ 071041Z 07006KT 6SM OVC012 13/11 A3000 RMK 8/6//= 071042

MMTJ 070940Z 00000KT 5SM OVC012 13/12 A3002 RMK 8/6// HZY= 070942

COR MMTJ 070841Z 11007KT 5SM OVC012 13/12 A3001 RMK SLP167 57008 970 8/6// HZY= 070848

MMTJ 070841Z 11007KT 4SM OVC008 13/12 A3001 RMK SLP167 57008 970 8/6// HZY= 070844

MMTJ 070741Z 36004KT 4SM OVC008 13/12 A3006 RMK 8/6// HZY= 070742

MMTJ 070640Z 32003KT 2SM BR OVC005 13/12 A3005 RMK 8/6//= 070641